sensor_id;sensor_type;location;lat;lon;timestamp;pressure;altitude;pressure_sealevel;temperature
20867;BMP280;10593;48.398;10.698;2023-11-18T00:01:24;96933.59;;;12.75
20867;BMP280;10593;48.398;10.698;2023-11-18T00:03:50;96926.72;;;12.74
20867;BMP280;10593;48.398;10.698;2023-11-18T00:06:15;96935.34;;;12.73
20867;BMP280;10593;48.398;10.698;2023-11-18T00:08:41;96929.31;;;12.73
20867;BMP280;10593;48.398;10.698;2023-11-18T00:11:07;96924.16;;;12.73
20867;BMP280;10593;48.398;10.698;2023-11-18T00:13:34;96926.78;;;12.71
20867;BMP280;10593;48.398;10.698;2023-11-18T00:16:00;96931.09;;;12.71
20867;BMP280;10593;48.398;10.698;2023-11-18T00:18:25;96933.66;;;12.71
20867;BMP280;10593;48.398;10.698;2023-11-18T00:20:51;96930.25;;;12.70
20867;BMP280;10593;48.398;10.698;2023-11-18T00:23:17;96934.53;;;12.70
20867;BMP280;10593;48.398;10.698;2023-11-18T00:25:43;96933.72;;;12.68
20867;BMP280;10593;48.398;10.698;2023-11-18T00:28:11;96934.53;;;12.68
20867;BMP280;10593;48.398;10.698;2023-11-18T00:30:39;96941.44;;;12.68
20867;BMP280;10593;48.398;10.698;2023-11-18T00:33:05;96933.72;;;12.66
20867;BMP280;10593;48.398;10.698;2023-11-18T00:35:31;96949.19;;;12.66
20867;BMP280;10593;48.398;10.698;2023-11-18T00:37:59;96940.63;;;12.64
20867;BMP280;10593;48.398;10.698;2023-11-18T00:40:25;96937.19;;;12.65
20867;BMP280;10593;48.398;10.698;2023-11-18T00:42:51;96933.75;;;12.65
20867;BMP280;10593;48.398;10.698;2023-11-18T00:45:16;96937.19;;;12.65
20867;BMP280;10593;48.398;10.698;2023-11-18T00:47:43;96945.78;;;12.64
20867;BMP280;10593;48.398;10.698;2023-11-18T00:50:09;96945.81;;;12.63
20867;BMP280;10593;48.398;10.698;2023-11-18T00:52:35;96940.66;;;12.63
20867;BMP280;10593;48.398;10.698;2023-11-18T00:55:05;96940.66;;;12.63
20867;BMP280;10593;48.398;10.698;2023-11-18T00:57:32;96932.09;;;12.61
20867;BMP280;10593;48.398;10.698;2023-11-18T00:59:57;96937.25;;;12.61
20867;BMP280;10593;48.398;10.698;2023-11-18T01:02:24;96936.41;;;12.60
20867;BMP280;10593;48.398;10.698;2023-11-18T01:04:49;96941.56;;;12.60
20867;BMP280;10593;48.398;10.698;2023-11-18T01:07:16;96945.88;;;12.58
20867;BMP280;10593;48.398;10.698;2023-11-18T01:09:42;96933.84;;;12.59
20867;BMP280;10593;48.398;10.698;2023-11-18T01:12:08;96937.28;;;12.58
20867;BMP280;10593;48.398;10.698;2023-11-18T01:14:39;96937.28;;;12.58
20867;BMP280;10593;48.398;10.698;2023-11-18T01:17:05;96945.03;;;12.58
20867;BMP280;10593;48.398;10.698;2023-11-18T01:19:32;96948.47;;;12.57
20867;BMP280;10593;48.398;10.698;2023-11-18T01:21:59;96942.47;;;12.56
20867;BMP280;10593;48.398;10.698;2023-11-18T01:24:25;96951.94;;;12.56
20867;BMP280;10593;48.398;10.698;2023-11-18T01:26:50;96951.06;;;12.55
20867;BMP280;10593;48.398;10.698;2023-11-18T01:29:16;96954.53;;;12.54
20867;BMP280;10593;48.398;10.698;2023-11-18T01:31:42;96959.66;;;12.56
20867;BMP280;10593;48.398;10.698;2023-11-18T01:34:09;96954.53;;;12.54
20867;BMP280;10593;48.398;10.698;2023-11-18T01:36:35;96959.72;;;12.53
20867;BMP280;10593;48.398;10.698;2023-11-18T01:39:00;96962.28;;;12.53
20867;BMP280;10593;48.398;10.698;2023-11-18T01:41:26;96964.88;;;12.53
20867;BMP280;10593;48.398;10.698;2023-11-18T01:43:52;96965.75;;;12.52
20867;BMP280;10593;48.398;10.698;2023-11-18T01:46:19;96966.59;;;12.52
20867;BMP280;10593;48.398;10.698;2023-11-18T01:48:47;96964.88;;;12.50
20867;BMP280;10593;48.398;10.698;2023-11-18T01:51:13;96969.19;;;12.51
20867;BMP280;10593;48.398;10.698;2023-11-18T01:53:42;96965.75;;;12.50
20867;BMP280;10593;48.398;10.698;2023-11-18T01:56:09;96964.94;;;12.48
20867;BMP280;10593;48.398;10.698;2023-11-18T01:58:37;96969.22;;;12.48
20867;BMP280;10593;48.398;10.698;2023-11-18T02:01:03;96965.81;;;12.46
20867;BMP280;10593;48.398;10.698;2023-11-18T02:03:34;96965.81;;;12.46
20867;BMP280;10593;48.398;10.698;2023-11-18T02:06:02;96969.25;;;12.45
20867;BMP280;10593;48.398;10.698;2023-11-18T02:08:31;96977.03;;;12.44
20867;BMP280;10593;48.398;10.698;2023-11-18T02:11:28;96977.91;;;12.41
20867;BMP280;10593;48.398;10.698;2023-11-18T02:14:00;96971.06;;;12.40
20867;BMP280;10593;48.398;10.698;2023-11-18T02:16:29;96972.81;;;12.38
20867;BMP280;10593;48.398;10.698;2023-11-18T02:18:55;96965.97;;;12.37
20867;BMP280;10593;48.398;10.698;2023-11-18T02:21:22;96971.13;;;12.37
20867;BMP280;10593;48.398;10.698;2023-11-18T02:23:49;96969.38;;;12.36
20867;BMP280;10593;48.398;10.698;2023-11-18T02:26:22;96984.00;;;12.36
20867;BMP280;10593;48.398;10.698;2023-11-18T02:28:48;96976.28;;;12.34
20867;BMP280;10593;48.398;10.698;2023-11-18T02:31:30;96983.19;;;12.32
20867;BMP280;10593;48.398;10.698;2023-11-18T02:34:02;96978.03;;;12.32
20867;BMP280;10593;48.398;10.698;2023-11-18T02:36:46;96990.09;;;12.30
20867;BMP280;10593;48.398;10.698;2023-11-18T02:39:29;96990.97;;;12.28
20867;BMP280;10593;48.398;10.698;2023-11-18T02:42:01;96991.84;;;12.27
20867;BMP280;10593;48.398;10.698;2023-11-18T02:44:30;96997.88;;;12.26
20867;BMP280;10593;48.398;10.698;2023-11-18T02:46:58;96993.59;;;12.26
20867;BMP280;10593;48.398;10.698;2023-11-18T02:49:24;96995.34;;;12.24
20867;BMP280;10593;48.398;10.698;2023-11-18T02:51:50;96989.31;;;12.24
20867;BMP280;10593;48.398;10.698;2023-11-18T02:54:15;96987.59;;;12.23
20867;BMP280;10593;48.398;10.698;2023-11-18T02:56:42;96986.75;;;12.22
20867;BMP280;10593;48.398;10.698;2023-11-18T02:59:07;96981.59;;;12.22
20867;BMP280;10593;48.398;10.698;2023-11-18T03:01:33;96992.75;;;12.21
20867;BMP280;10593;48.398;10.698;2023-11-18T03:04:00;96991.06;;;12.20
20867;BMP280;10593;48.398;10.698;2023-11-18T03:06:26;96998.78;;;12.20
20867;BMP280;10593;48.398;10.698;2023-11-18T03:08:52;96999.66;;;12.19
20867;BMP280;10593;48.398;10.698;2023-11-18T03:11:21;96999.66;;;12.19
20867;BMP280;10593;48.398;10.698;2023-11-18T03:13:48;96999.72;;;12.18
20867;BMP280;10593;48.398;10.698;2023-11-18T03:16:14;97010.84;;;12.18
20867;BMP280;10593;48.398;10.698;2023-11-18T03:18:41;97008.31;;;12.17
20867;BMP280;10593;48.398;10.698;2023-11-18T03:21:13;97006.56;;;12.17
20867;BMP280;10593;48.398;10.698;2023-11-18T03:23:40;97006.56;;;12.16
20867;BMP280;10593;48.398;10.698;2023-11-18T03:26:07;97007.44;;;12.16
20867;BMP280;10593;48.398;10.698;2023-11-18T03:28:33;97010.88;;;12.15
20867;BMP280;10593;48.398;10.698;2023-11-18T03:30:59;97007.44;;;12.15
20867;BMP280;10593;48.398;10.698;2023-11-18T03:33:25;97007.44;;;12.15
20867;BMP280;10593;48.398;10.698;2023-11-18T03:35:51;97016.91;;;12.14
20867;BMP280;10593;48.398;10.698;2023-11-18T03:38:16;97002.34;;;12.13
20867;BMP280;10593;48.398;10.698;2023-11-18T03:40:45;97007.47;;;12.13
20867;BMP280;10593;48.398;10.698;2023-11-18T03:43:14;96999.75;;;12.12
20867;BMP280;10593;48.398;10.698;2023-11-18T03:45:40;97014.34;;;12.13
20867;BMP280;10593;48.398;10.698;2023-11-18T03:48:06;97010.94;;;12.12
20867;BMP280;10593;48.398;10.698;2023-11-18T03:50:33;97002.34;;;12.12
20867;BMP280;10593;48.398;10.698;2023-11-18T03:52:59;97004.06;;;12.11
20867;BMP280;10593;48.398;10.698;2023-11-18T03:55:26;97004.06;;;12.11
20867;BMP280;10593;48.398;10.698;2023-11-18T03:57:52;96999.78;;;12.10
20867;BMP280;10593;48.398;10.698;2023-11-18T04:00:19;97001.50;;;12.10
20867;BMP280;10593;48.398;10.698;2023-11-18T04:02:46;96995.50;;;12.09
20867;BMP280;10593;48.398;10.698;2023-11-18T04:05:12;96995.50;;;12.09
20867;BMP280;10593;48.398;10.698;2023-11-18T04:07:39;96993.78;;;12.08
20867;BMP280;10593;48.398;10.698;2023-11-18T04:10:08;96997.22;;;12.09
20867;BMP280;10593;48.398;10.698;2023-11-18T04:12:38;96996.34;;;12.08
20867;BMP280;10593;48.398;10.698;2023-11-18T04:15:05;96993.78;;;12.08
20867;BMP280;10593;48.398;10.698;2023-11-18T04:17:31;96986.09;;;12.07
20867;BMP280;10593;48.398;10.698;2023-11-18T04:19:57;96991.25;;;12.07
20867;BMP280;10593;48.398;10.698;2023-11-18T04:22:23;96988.69;;;12.05
20867;BMP280;10593;48.398;10.698;2023-11-18T04:24:49;96990.38;;;12.06
20867;BMP280;10593;48.398;10.698;2023-11-18T04:27:15;96992.13;;;12.04
20867;BMP280;10593;48.398;10.698;2023-11-18T04:29:41;97003.28;;;12.05
20867;BMP280;10593;48.398;10.698;2023-11-18T04:32:07;97003.28;;;12.05
20867;BMP280;10593;48.398;10.698;2023-11-18T04:34:36;97004.16;;;12.04
20867;BMP280;10593;48.398;10.698;2023-11-18T04:37:05;97012.72;;;12.03
20867;BMP280;10593;48.398;10.698;2023-11-18T04:39:34;97015.31;;;12.04
20867;BMP280;10593;48.398;10.698;2023-11-18T04:42:01;97012.72;;;12.03
20867;BMP280;10593;48.398;10.698;2023-11-18T04:44:27;97011.91;;;12.02
20867;BMP280;10593;48.398;10.698;2023-11-18T04:46:52;97011.91;;;12.02
20867;BMP280;10593;48.398;10.698;2023-11-18T04:49:18;97016.19;;;12.02
20867;BMP280;10593;48.398;10.698;2023-11-18T04:51:45;97009.31;;;12.02
20867;BMP280;10593;48.398;10.698;2023-11-18T04:54:11;97005.88;;;12.02
20867;BMP280;10593;48.398;10.698;2023-11-18T04:56:37;97011.03;;;12.02
20867;BMP280;10593;48.398;10.698;2023-11-18T04:59:03;97014.47;;;12.02
20867;BMP280;10593;48.398;10.698;2023-11-18T05:01:33;97012.78;;;12.01
20867;BMP280;10593;48.398;10.698;2023-11-18T05:03:59;97002.47;;;12.01
20867;BMP280;10593;48.398;10.698;2023-11-18T05:06:25;97011.91;;;12.01
20867;BMP280;10593;48.398;10.698;2023-11-18T05:08:52;97012.78;;;12.01
20867;BMP280;10593;48.398;10.698;2023-11-18T05:11:17;97014.47;;;12.01
20867;BMP280;10593;48.398;10.698;2023-11-18T05:13:43;97006.75;;;12.01
20867;BMP280;10593;48.398;10.698;2023-11-18T05:16:09;97011.91;;;12.01
20867;BMP280;10593;48.398;10.698;2023-11-18T05:18:37;97011.06;;;12.00
20867;BMP280;10593;48.398;10.698;2023-11-18T05:21:05;97007.63;;;12.01
20867;BMP280;10593;48.398;10.698;2023-11-18T05:23:31;97011.91;;;12.01
20867;BMP280;10593;48.398;10.698;2023-11-18T05:25:57;97018.78;;;12.00
20867;BMP280;10593;48.398;10.698;2023-11-18T05:28:26;97013.66;;;12.00
20867;BMP280;10593;48.398;10.698;2023-11-18T05:30:52;97008.50;;;12.00
20867;BMP280;10593;48.398;10.698;2023-11-18T05:33:18;97000.75;;;12.00
20867;BMP280;10593;48.398;10.698;2023-11-18T05:35:45;96995.63;;;12.00
20867;BMP280;10593;48.398;10.698;2023-11-18T05:38:18;96999.91;;;12.01
20867;BMP280;10593;48.398;10.698;2023-11-18T05:40:47;97002.47;;;12.00
20867;BMP280;10593;48.398;10.698;2023-11-18T05:43:25;97009.31;;;12.01
20867;BMP280;10593;48.398;10.698;2023-11-18T05:46:17;97007.66;;;11.98
20867;BMP280;10593;48.398;10.698;2023-11-18T05:48:52;97014.50;;;11.99
20867;BMP280;10593;48.398;10.698;2023-11-18T05:51:26;97019.66;;;11.99
20867;BMP280;10593;48.398;10.698;2023-11-18T05:53:53;97023.94;;;11.99
20867;BMP280;10593;48.398;10.698;2023-11-18T05:56:19;97024.81;;;11.99
20867;BMP280;10593;48.398;10.698;2023-11-18T05:58:47;97022.25;;;11.99
20867;BMP280;10593;48.398;10.698;2023-11-18T06:01:13;97024.81;;;11.99
20867;BMP280;10593;48.398;10.698;2023-11-18T06:03:41;97021.38;;;11.99
20867;BMP280;10593;48.398;10.698;2023-11-18T06:06:14;97018.78;;;11.99
20867;BMP280;10593;48.398;10.698;2023-11-18T06:08:42;97031.66;;;12.00
20867;BMP280;10593;48.398;10.698;2023-11-18T06:11:13;97024.81;;;11.99
20867;BMP280;10593;48.398;10.698;2023-11-18T06:13:50;97024.78;;;12.01
20867;BMP280;10593;48.398;10.698;2023-11-18T06:16:22;97023.94;;;11.99
20867;BMP280;10593;48.398;10.698;2023-11-18T06:18:50;97008.50;;;11.99
20867;BMP280;10593;48.398;10.698;2023-11-18T06:21:22;97008.50;;;11.99
20867;BMP280;10593;48.398;10.698;2023-11-18T06:23:54;97016.22;;;11.99
20867;BMP280;10593;48.398;10.698;2023-11-18T06:26:23;97018.78;;;11.99
20867;BMP280;10593;48.398;10.698;2023-11-18T06:28:56;97017.94;;;12.00
20867;BMP280;10593;48.398;10.698;2023-11-18T06:31:23;97015.34;;;12.00
20867;BMP280;10593;48.398;10.698;2023-11-18T06:33:51;97010.19;;;12.00
20867;BMP280;10593;48.398;10.698;2023-11-18T06:36:21;97014.50;;;11.99
20867;BMP280;10593;48.398;10.698;2023-11-18T06:38:52;97014.50;;;11.99
20867;BMP280;10593;48.398;10.698;2023-11-18T06:41:21;97009.38;;;11.99
20867;BMP280;10593;48.398;10.698;2023-11-18T06:43:51;97013.66;;;11.99
20867;BMP280;10593;48.398;10.698;2023-11-18T06:46:30;97018.78;;;11.99
20867;BMP280;10593;48.398;10.698;2023-11-18T06:49:01;97022.25;;;11.96
20867;BMP280;10593;48.398;10.698;2023-11-18T06:51:32;97012.81;;;11.95
20867;BMP280;10593;48.398;10.698;2023-11-18T06:54:01;97014.53;;;11.96
20867;BMP280;10593;48.398;10.698;2023-11-18T06:56:45;97018.84;;;11.94
20867;BMP280;10593;48.398;10.698;2023-11-18T06:59:12;97014.56;;;11.93
20867;BMP280;10593;48.398;10.698;2023-11-18T07:01:40;97020.59;;;11.92
20867;BMP280;10593;48.398;10.698;2023-11-18T07:04:09;97018.03;;;11.91
20867;BMP280;10593;48.398;10.698;2023-11-18T07:06:35;97025.78;;;11.89
20867;BMP280;10593;48.398;10.698;2023-11-18T07:09:05;97023.19;;;11.89
20867;BMP280;10593;48.398;10.698;2023-11-18T07:11:41;97035.22;;;11.89
20867;BMP280;10593;48.398;10.698;2023-11-18T07:14:11;97033.53;;;11.86
20867;BMP280;10593;48.398;10.698;2023-11-18T07:16:39;97029.22;;;11.87
20867;BMP280;10593;48.398;10.698;2023-11-18T07:19:05;97035.25;;;11.86
20867;BMP280;10593;48.398;10.698;2023-11-18T07:21:31;97040.41;;;11.86
20867;BMP280;10593;48.398;10.698;2023-11-18T07:23:56;97047.28;;;11.85
20867;BMP280;10593;48.398;10.698;2023-11-18T07:26:22;97054.13;;;11.86
20867;BMP280;10593;48.398;10.698;2023-11-18T07:28:50;97038.69;;;11.85
20867;BMP280;10593;48.398;10.698;2023-11-18T07:31:15;97040.41;;;11.86
20867;BMP280;10593;48.398;10.698;2023-11-18T07:33:46;97049.88;;;11.85
20867;BMP280;10593;48.398;10.698;2023-11-18T07:36:16;97057.59;;;11.85
20867;BMP280;10593;48.398;10.698;2023-11-18T07:38:42;97052.41;;;11.87
20867;BMP280;10593;48.398;10.698;2023-11-18T07:41:08;97046.41;;;11.86
20867;BMP280;10593;48.398;10.698;2023-11-18T07:43:35;97049.81;;;11.87
20867;BMP280;10593;48.398;10.698;2023-11-18T07:46:06;97054.09;;;11.88
20867;BMP280;10593;48.398;10.698;2023-11-18T07:48:33;97057.56;;;11.88
20867;BMP280;10593;48.398;10.698;2023-11-18T07:50:58;97062.69;;;11.88
20867;BMP280;10593;48.398;10.698;2023-11-18T07:53:25;97061.81;;;11.89
20867;BMP280;10593;48.398;10.698;2023-11-18T07:55:55;97062.69;;;11.90
20867;BMP280;10593;48.398;10.698;2023-11-18T07:58:20;97072.97;;;11.91
20867;BMP280;10593;48.398;10.698;2023-11-18T08:00:48;97074.66;;;11.92
20867;BMP280;10593;48.398;10.698;2023-11-18T08:03:15;97060.91;;;11.93
20867;BMP280;10593;48.398;10.698;2023-11-18T08:05:43;97068.66;;;11.95
20867;BMP280;10593;48.398;10.698;2023-11-18T08:08:10;97066.03;;;11.96
20867;BMP280;10593;48.398;10.698;2023-11-18T08:10:38;97070.31;;;11.99
20867;BMP280;10593;48.398;10.698;2023-11-18T08:13:08;97078.88;;;12.01
20867;BMP280;10593;48.398;10.698;2023-11-18T08:15:37;97077.13;;;12.04
20867;BMP280;10593;48.398;10.698;2023-11-18T08:18:03;97076.25;;;12.07
20867;BMP280;10593;48.398;10.698;2023-11-18T08:20:29;97077.09;;;12.10
20867;BMP280;10593;48.398;10.698;2023-11-18T08:22:56;97076.19;;;12.13
20867;BMP280;10593;48.398;10.698;2023-11-18T08:25:21;97064.13;;;12.16
20867;BMP280;10593;48.398;10.698;2023-11-18T08:27:48;97054.66;;;12.18
20867;BMP280;10593;48.398;10.698;2023-11-18T08:30:14;97046.00;;;12.22
20867;BMP280;10593;48.398;10.698;2023-11-18T08:32:44;97039.13;;;12.24
20867;BMP280;10593;48.398;10.698;2023-11-18T08:35:12;97046.00;;;12.25
20867;BMP280;10593;48.398;10.698;2023-11-18T08:37:42;97047.66;;;12.28
20867;BMP280;10593;48.398;10.698;2023-11-18T08:40:12;97057.09;;;12.30
20867;BMP280;10593;48.398;10.698;2023-11-18T08:42:45;97049.31;;;12.33
20867;BMP280;10593;48.398;10.698;2023-11-18T08:45:20;97051.88;;;12.33
20867;BMP280;10593;48.398;10.698;2023-11-18T08:48:00;97057.00;;;12.36
20867;BMP280;10593;48.398;10.698;2023-11-18T08:50:28;97053.59;;;12.37
20867;BMP280;10593;48.398;10.698;2023-11-18T08:52:55;97058.66;;;12.42
20867;BMP280;10593;48.398;10.698;2023-11-18T08:55:30;97051.78;;;12.44
20867;BMP280;10593;48.398;10.698;2023-11-18T08:58:07;97048.34;;;12.45
20867;BMP280;10593;48.398;10.698;2023-11-18T09:00:46;97050.00;;;12.47
20867;BMP280;10593;48.398;10.698;2023-11-18T09:03:22;97056.84;;;12.49
20867;BMP280;10593;48.398;10.698;2023-11-18T09:06:09;97060.25;;;12.51
20867;BMP280;10593;48.398;10.698;2023-11-18T09:08:51;97056.84;;;12.51
20867;BMP280;10593;48.398;10.698;2023-11-18T09:11:23;97058.50;;;12.53
20867;BMP280;10593;48.398;10.698;2023-11-18T09:13:50;97047.31;;;12.54
20867;BMP280;10593;48.398;10.698;2023-11-18T09:16:20;97042.16;;;12.57
20867;BMP280;10593;48.398;10.698;2023-11-18T09:18:51;97032.66;;;12.59
20867;BMP280;10593;48.398;10.698;2023-11-18T09:21:17;97025.78;;;12.60
20867;BMP280;10593;48.398;10.698;2023-11-18T09:23:50;97034.34;;;12.62
20867;BMP280;10593;48.398;10.698;2023-11-18T09:26:16;97042.94;;;12.64
20867;BMP280;10593;48.398;10.698;2023-11-18T09:28:43;97037.75;;;12.65
20867;BMP280;10593;48.398;10.698;2023-11-18T09:31:10;97034.28;;;12.68
20867;BMP280;10593;48.398;10.698;2023-11-18T09:33:41;97035.97;;;12.69
20867;BMP280;10593;48.398;10.698;2023-11-18T09:36:12;97029.06;;;12.71
20867;BMP280;10593;48.398;10.698;2023-11-18T09:38:40;97024.75;;;12.73
20867;BMP280;10593;48.398;10.698;2023-11-18T09:41:10;97041.03;;;12.75
20867;BMP280;10593;48.398;10.698;2023-11-18T09:43:46;97043.59;;;12.76
20867;BMP280;10593;48.398;10.698;2023-11-18T09:46:14;97041.03;;;12.76
20867;BMP280;10593;48.398;10.698;2023-11-18T09:48:49;97034.94;;;12.80
20867;BMP280;10593;48.398;10.698;2023-11-18T09:51:26;97031.53;;;12.80
20867;BMP280;10593;48.398;10.698;2023-11-18T09:54:05;97019.47;;;12.80
20867;BMP280;10593;48.398;10.698;2023-11-18T10:00:06;97037.53;;;12.82
20867;BMP280;10593;48.398;10.698;2023-11-18T10:02:54;97035.75;;;12.84
20867;BMP280;10593;48.398;10.698;2023-11-18T10:05:23;97020.28;;;12.85
20867;BMP280;10593;48.398;10.698;2023-11-18T10:07:52;97021.94;;;12.88
20867;BMP280;10593;48.398;10.698;2023-11-18T10:10:19;97024.50;;;12.89
20867;BMP280;10593;48.398;10.698;2023-11-18T10:12:49;97023.63;;;12.92
20867;BMP280;10593;48.398;10.698;2023-11-18T10:15:21;97022.78;;;12.93
20867;BMP280;10593;48.398;10.698;2023-11-18T10:17:51;97025.31;;;12.94
20867;BMP280;10593;48.398;10.698;2023-11-18T10:20:51;97027.91;;;12.94
20867;BMP280;10593;48.398;10.698;2023-11-18T10:23:19;97024.44;;;12.95
20867;BMP280;10593;48.398;10.698;2023-11-18T10:25:48;97037.34;;;12.97
20867;BMP280;10593;48.398;10.698;2023-11-18T10:28:29;97035.63;;;12.97
20867;BMP280;10593;48.398;10.698;2023-11-18T10:30:56;97030.41;;;12.99
20867;BMP280;10593;48.398;10.698;2023-11-18T10:33:37;97027.84;;;13.00
20867;BMP280;10593;48.398;10.698;2023-11-18T10:36:05;97020.09;;;13.00
20867;BMP280;10593;48.398;10.698;2023-11-18T10:38:39;97030.38;;;13.02
20867;BMP280;10593;48.398;10.698;2023-11-18T10:41:15;97020.91;;;13.02
20867;BMP280;10593;48.398;10.698;2023-11-18T10:43:45;97025.19;;;13.05
20867;BMP280;10593;48.398;10.698;2023-11-18T10:46:12;97034.59;;;13.07
20867;BMP280;10593;48.398;10.698;2023-11-18T10:48:42;97029.41;;;13.09
20867;BMP280;10593;48.398;10.698;2023-11-18T10:51:14;97018.22;;;13.10
20867;BMP280;10593;48.398;10.698;2023-11-18T10:53:48;97016.47;;;13.12
20867;BMP280;10593;48.398;10.698;2023-11-18T10:56:29;97007.84;;;13.13
20867;BMP280;10593;48.398;10.698;2023-11-18T10:58:57;97016.41;;;13.15
20867;BMP280;10593;48.398;10.698;2023-11-18T11:01:31;97018.09;;;13.16
20867;BMP280;10593;48.398;10.698;2023-11-18T11:04:00;97014.66;;;13.17
20867;BMP280;10593;48.398;10.698;2023-11-18T11:06:31;97015.53;;;13.17
20867;BMP280;10593;48.398;10.698;2023-11-18T11:08:58;97009.47;;;13.18
20867;BMP280;10593;48.398;10.698;2023-11-18T11:11:29;97009.47;;;13.20
20867;BMP280;10593;48.398;10.698;2023-11-18T11:14:04;97017.16;;;13.21
20867;BMP280;10593;48.398;10.698;2023-11-18T11:16:41;97009.41;;;13.23
20867;BMP280;10593;48.398;10.698;2023-11-18T11:19:26;97012.00;;;13.23
20867;BMP280;10593;48.398;10.698;2023-11-18T11:22:07;97016.28;;;13.24
20867;BMP280;10593;48.398;10.698;2023-11-18T11:25:10;97008.53;;;13.24
20867;BMP280;10593;48.398;10.698;2023-11-18T11:27:56;97008.53;;;13.25
20867;BMP280;10593;48.398;10.698;2023-11-18T11:30:42;97011.06;;;13.27
20867;BMP280;10593;48.398;10.698;2023-11-18T11:33:41;97006.72;;;13.29
20867;BMP280;10593;48.398;10.698;2023-11-18T11:36:21;97001.56;;;13.29
20867;BMP280;10593;48.398;10.698;2023-11-18T11:38:52;96994.69;;;13.29
20867;BMP280;10593;48.398;10.698;2023-11-18T11:41:20;97004.13;;;13.32
20867;BMP280;10593;48.398;10.698;2023-11-18T11:43:52;97002.34;;;13.34
20867;BMP280;10593;48.398;10.698;2023-11-18T11:46:25;97004.06;;;13.35
20867;BMP280;10593;48.398;10.698;2023-11-18T11:48:54;96997.13;;;13.37
20867;BMP280;10593;48.398;10.698;2023-11-18T11:51:32;96992.78;;;13.39
20867;BMP280;10593;48.398;10.698;2023-11-18T11:54:10;96991.91;;;13.40
20867;BMP280;10593;48.398;10.698;2023-11-18T11:56:48;96986.75;;;13.40
20867;BMP280;10593;48.398;10.698;2023-11-18T12:02:13;96979.81;;;13.42
20867;BMP280;10593;48.398;10.698;2023-11-18T12:05:00;96979.00;;;13.41
20867;BMP280;10593;48.398;10.698;2023-11-18T12:07:31;96975.53;;;13.42
20867;BMP280;10593;48.398;10.698;2023-11-18T12:10:08;96960.00;;;13.44
20867;BMP280;10593;48.398;10.698;2023-11-18T12:12:39;96969.47;;;13.45
20867;BMP280;10593;48.398;10.698;2023-11-18T12:15:07;96961.69;;;13.46
20867;BMP280;10593;48.398;10.698;2023-11-18T12:20:44;96958.25;;;13.46
20867;BMP280;10593;48.398;10.698;2023-11-18T12:23:14;96951.34;;;13.48
20867;BMP280;10593;48.398;10.698;2023-11-18T12:25:41;96943.59;;;13.48
20867;BMP280;10593;48.398;10.698;2023-11-18T12:28:10;96948.72;;;13.49
20867;BMP280;10593;48.398;10.698;2023-11-18T12:30:39;96936.66;;;13.51
20867;BMP280;10593;48.398;10.698;2023-11-18T12:33:09;96943.50;;;13.52
20867;BMP280;10593;48.398;10.698;2023-11-18T12:41:43;96929.72;;;13.53
20867;BMP280;10593;48.398;10.698;2023-11-18T12:46:59;96927.06;;;13.56
20867;BMP280;10593;48.398;10.698;2023-11-18T12:49:48;96924.47;;;13.58
20867;BMP280;10593;48.398;10.698;2023-11-18T12:52:21;96926.19;;;13.59
20867;BMP280;10593;48.398;10.698;2023-11-18T12:54:48;96922.72;;;13.60
20867;BMP280;10593;48.398;10.698;2023-11-18T12:57:20;96910.63;;;13.62
20867;BMP280;10593;48.398;10.698;2023-11-18T12:59:49;96908.03;;;13.62
20867;BMP280;10593;48.398;10.698;2023-11-18T13:02:16;96900.25;;;13.63
20867;BMP280;10593;48.398;10.698;2023-11-18T13:04:49;96883.88;;;13.64
20867;BMP280;10593;48.398;10.698;2023-11-18T13:07:16;96894.19;;;13.64
20867;BMP280;10593;48.398;10.698;2023-11-18T13:09:47;96875.25;;;13.65
20867;BMP280;10593;48.398;10.698;2023-11-18T13:12:14;96883.00;;;13.65
20867;BMP280;10593;48.398;10.698;2023-11-18T13:14:42;96881.25;;;13.66
20867;BMP280;10593;48.398;10.698;2023-11-18T13:17:16;96876.97;;;13.66
20867;BMP280;10593;48.398;10.698;2023-11-18T13:19:43;96879.50;;;13.68
20867;BMP280;10593;48.398;10.698;2023-11-18T13:22:11;96883.78;;;13.69
20867;BMP280;10593;48.398;10.698;2023-11-18T13:24:40;96876.91;;;13.69
20867;BMP280;10593;48.398;10.698;2023-11-18T13:27:07;96869.97;;;13.71
20867;BMP280;10593;48.398;10.698;2023-11-18T13:29:37;96862.22;;;13.71
20867;BMP280;10593;48.398;10.698;2023-11-18T13:32:05;96859.63;;;13.73
20867;BMP280;10593;48.398;10.698;2023-11-18T13:34:36;96854.44;;;13.73
20867;BMP280;10593;48.398;10.698;2023-11-18T13:37:05;96863.91;;;13.74
20867;BMP280;10593;48.398;10.698;2023-11-18T13:39:35;96863.91;;;13.74
20867;BMP280;10593;48.398;10.698;2023-11-18T13:42:20;96863.91;;;13.74
20867;BMP280;10593;48.398;10.698;2023-11-18T13:44:46;96866.47;;;13.74
20867;BMP280;10593;48.398;10.698;2023-11-18T13:47:16;96862.16;;;13.74
20867;BMP280;10593;48.398;10.698;2023-11-18T13:49:42;96865.59;;;13.75
20867;BMP280;10593;48.398;10.698;2023-11-18T13:52:09;96858.69;;;13.75
20867;BMP280;10593;48.398;10.698;2023-11-18T13:54:37;96867.28;;;13.76
20867;BMP280;10593;48.398;10.698;2023-11-18T13:57:04;96860.38;;;13.76
20867;BMP280;10593;48.398;10.698;2023-11-18T13:59:32;96860.34;;;13.78
20867;BMP280;10593;48.398;10.698;2023-11-18T14:01:59;96860.34;;;13.78
20867;BMP280;10593;48.398;10.698;2023-11-18T14:04:29;96851.72;;;13.79
20867;BMP280;10593;48.398;10.698;2023-11-18T14:07:00;96844.88;;;13.78
20867;BMP280;10593;48.398;10.698;2023-11-18T14:09:29;96837.09;;;13.79
20867;BMP280;10593;48.398;10.698;2023-11-18T14:11:57;96838.81;;;13.79
20867;BMP280;10593;48.398;10.698;2023-11-18T14:14:23;96837.03;;;13.81
20867;BMP280;10593;48.398;10.698;2023-11-18T14:16:51;96826.72;;;13.81
20867;BMP280;10593;48.398;10.698;2023-11-18T14:19:19;96831.88;;;13.81
20867;BMP280;10593;48.398;10.698;2023-11-18T14:21:45;96825.81;;;13.82
20867;BMP280;10593;48.398;10.698;2023-11-18T14:24:11;96816.34;;;13.82
20867;BMP280;10593;48.398;10.698;2023-11-18T14:26:40;96818.06;;;13.83
20867;BMP280;10593;48.398;10.698;2023-11-18T14:29:07;96819.78;;;13.83